createdAt,value
2023-03-17T00:00:58.129Z,7.85
2023-03-17T00:03:31.073Z,13.35
2023-03-17T00:06:01.496Z,7.97
2023-03-17T00:08:36.477Z,8.48
2023-03-17T00:11:17.529Z,7.85
2023-03-17T00:16:25.499Z,10.70
2023-03-17T00:18:58.174Z,8.60
2023-03-17T00:21:34.277Z,10.05
2023-03-17T00:24:03.160Z,11.68
2023-03-17T00:26:33.483Z,9.77
2023-03-17T00:29:03.679Z,10.07
2023-03-17T00:31:35.773Z,12.90
2023-03-17T00:34:08.048Z,11.23
2023-03-17T00:36:37.479Z,11.50
2023-03-17T00:41:48.432Z,13.55
2023-03-17T00:44:18.707Z,11.23
2023-03-17T00:46:48.432Z,14.32
2023-03-17T00:49:26.786Z,9.88
2023-03-17T00:51:55.442Z,10.70
2023-03-17T00:54:23.325Z,13.38
2023-03-17T00:56:52.810Z,9.10
2023-03-17T00:59:42.308Z,8.88
2023-03-17T01:02:14.899Z,10.00
2023-03-17T01:04:49.964Z,14.82
2023-03-17T01:07:24.277Z,11.25
2023-03-17T01:09:55.082Z,12.13
2023-03-17T01:12:26.363Z,12.25
2023-03-17T01:14:55.484Z,8.70
2023-03-17T01:17:25.098Z,14.18
2023-03-17T01:19:55.340Z,9.73
2023-03-17T01:22:25.621Z,10.82
2023-03-17T01:24:54.576Z,10.70
2023-03-17T01:27:25.428Z,11.50
2023-03-17T01:29:56.001Z,12.25
2023-03-17T01:32:25.801Z,12.77
2023-03-17T01:34:55.846Z,13.38
2023-03-17T01:37:24.563Z,11.20
2023-03-17T01:39:52.900Z,11.48
2023-03-17T01:42:21.190Z,13.50
2023-03-17T01:45:46.674Z,14.23
2023-03-17T01:48:18.268Z,17.55
2023-03-17T01:50:50.136Z,13.50
2023-03-17T01:53:23.688Z,15.77
2023-03-17T01:55:58.002Z,13.77
2023-03-17T01:58:28.202Z,13.95
2023-03-17T02:00:58.246Z,8.73
2023-03-17T02:03:29.929Z,16.45
2023-03-17T02:06:02.513Z,11.70
2023-03-17T02:08:32.910Z,11.88
2023-03-17T02:11:05.308Z,16.27
2023-03-17T02:13:38.516Z,11.82
2023-03-17T02:16:17.343Z,17.75
2023-03-17T02:18:47.834Z,11.23
2023-03-17T02:21:41.010Z,13.48
2023-03-17T02:24:32.077Z,13.90
2023-03-17T02:29:46.350Z,11.18
2023-03-17T02:32:19.734Z,15.48
2023-03-17T02:34:49.569Z,12.52
2023-03-17T02:37:20.851Z,10.55
2023-03-17T02:39:50.816Z,13.77
2023-03-17T02:42:21.016Z,15.00
2023-03-17T02:44:51.074Z,14.85
2023-03-17T02:47:22.144Z,16.48
2023-03-17T02:49:54.179Z,12.73
2023-03-17T02:52:24.661Z,12.60
2023-03-17T02:54:54.699Z,14.43
2023-03-17T02:57:24.851Z,11.60
2023-03-17T02:59:54.893Z,16.55
2023-03-17T03:02:24.966Z,13.43
2023-03-17T03:04:54.980Z,12.88
2023-03-17T03:07:25.009Z,17.70
2023-03-17T03:09:55.016Z,11.48
2023-03-17T03:12:25.624Z,18.05
2023-03-17T03:14:55.673Z,14.07
2023-03-17T03:17:25.703Z,16.13
2023-03-17T03:19:56.217Z,17.92
2023-03-17T03:22:26.306Z,11.18
2023-03-17T03:24:56.308Z,12.18
2023-03-17T03:27:26.690Z,16.88
2023-03-17T03:29:56.735Z,10.65
2023-03-17T03:32:27.712Z,15.93
2023-03-17T03:34:58.028Z,17.85
2023-03-17T03:37:28.052Z,18.27
2023-03-17T03:39:58.137Z,12.32
2023-03-17T03:42:28.128Z,13.40
2023-03-17T03:44:58.138Z,17.95
2023-03-17T03:47:28.129Z,13.65
2023-03-17T03:49:58.076Z,12.85
2023-03-17T03:52:28.152Z,12.98
2023-03-17T03:54:58.147Z,11.75
2023-03-17T03:57:29.023Z,15.15
2023-03-17T03:59:59.163Z,14.40
2023-03-17T04:02:29.861Z,13.10
2023-03-17T04:05:00.133Z,14.15
2023-03-17T04:07:30.445Z,13.00
2023-03-17T04:10:00.641Z,14.85
2023-03-17T04:12:30.759Z,13.35
2023-03-17T04:15:00.973Z,13.57
2023-03-17T04:17:30.964Z,13.13
2023-03-17T04:20:01.210Z,11.88
2023-03-17T04:22:31.718Z,11.80
2023-03-17T04:25:01.728Z,11.80
2023-03-17T04:27:32.341Z,14.18
2023-03-17T04:30:02.728Z,9.93
2023-03-17T04:32:32.254Z,16.65
2023-03-17T04:35:02.518Z,12.70
2023-03-17T04:37:34.587Z,15.02
2023-03-17T04:40:10.039Z,17.20
2023-03-17T04:42:41.067Z,14.95
2023-03-17T04:45:15.618Z,13.65
2023-03-17T04:47:48.708Z,11.02
2023-03-17T04:50:18.069Z,10.63
2023-03-17T04:52:45.725Z,12.80
2023-03-17T04:55:13.923Z,10.07
2023-03-17T04:57:42.290Z,11.88
2023-03-17T05:00:12.875Z,13.23
2023-03-17T05:02:43.051Z,12.48
2023-03-17T05:05:13.713Z,16.02
2023-03-17T05:07:44.911Z,13.63
2023-03-17T05:10:15.208Z,12.27
2023-03-17T05:12:45.442Z,12.75
2023-03-17T05:15:15.981Z,11.57
2023-03-17T05:17:46.038Z,14.95
2023-03-17T05:20:16.551Z,10.35
2023-03-17T05:22:46.661Z,12.95
2023-03-17T05:25:17.049Z,10.27
2023-03-17T05:27:47.048Z,14.10
2023-03-17T05:30:17.893Z,11.20
2023-03-17T05:32:45.687Z,11.55
2023-03-17T05:35:14.162Z,20.10
2023-03-17T05:37:42.757Z,9.55
2023-03-17T05:40:14.763Z,9.43
2023-03-17T05:42:42.828Z,12.80
2023-03-17T05:45:11.778Z,11.63
2023-03-17T05:47:39.426Z,12.02
2023-03-17T05:50:09.433Z,11.18
2023-03-17T05:52:40.099Z,14.02
2023-03-17T05:55:11.741Z,14.93
2023-03-17T05:57:42.002Z,11.25
2023-03-17T06:00:16.319Z,8.95
2023-03-17T06:02:46.536Z,9.27
2023-03-17T06:05:17.163Z,11.98
2023-03-17T06:07:54.653Z,11.95
2023-03-17T06:10:26.271Z,9.73
2023-03-17T06:12:57.108Z,10.63
2023-03-17T06:15:27.738Z,10.73
2023-03-17T06:17:58.031Z,11.55
2023-03-17T06:20:29.120Z,10.75
2023-03-17T06:23:04.864Z,10.38
2023-03-17T06:25:37.113Z,13.27
2023-03-17T06:28:07.234Z,14.82
2023-03-17T06:30:40.473Z,13.63
2023-03-17T06:33:11.039Z,10.23
2023-03-17T06:35:41.550Z,11.20
2023-03-17T06:38:11.772Z,10.40
2023-03-17T06:40:41.828Z,11.45
2023-03-17T06:43:12.335Z,12.32
2023-03-17T06:45:42.336Z,11.13
2023-03-17T06:48:13.269Z,9.65
2023-03-17T06:50:43.479Z,11.50
2023-03-17T06:53:14.165Z,8.00
2023-03-17T06:55:45.082Z,10.45
2023-03-17T06:58:16.025Z,10.38
2023-03-17T07:00:49.076Z,15.05
2023-03-17T07:03:20.114Z,10.02
2023-03-17T07:05:50.240Z,10.95
2023-03-17T07:08:21.149Z,11.23
2023-03-17T07:10:51.683Z,10.52
2023-03-17T07:13:22.483Z,12.63
2023-03-17T07:15:55.476Z,8.15
2023-03-17T07:18:26.073Z,9.43
2023-03-17T07:20:56.364Z,12.15
2023-03-17T07:23:27.126Z,9.25
2023-03-17T07:25:58.101Z,10.30
2023-03-17T07:28:25.765Z,12.18
2023-03-17T07:30:54.665Z,10.90
2023-03-17T07:33:22.705Z,9.32
2023-03-17T07:35:52.503Z,9.98
2023-03-17T07:38:22.404Z,12.07
2023-03-17T07:40:50.953Z,7.90
2023-03-17T07:43:19.777Z,10.43
2023-03-17T07:45:47.948Z,12.75
2023-03-17T07:48:16.342Z,11.75
2023-03-17T07:50:45.283Z,9.98
2023-03-17T07:53:13.455Z,12.15
2023-03-17T07:55:41.509Z,10.68
2023-03-17T07:58:10.583Z,14.27
2023-03-17T08:00:38.259Z,8.45
2023-03-17T08:03:10.550Z,13.75
2023-03-17T08:05:41.235Z,11.90
2023-03-17T08:08:11.560Z,12.68
2023-03-17T08:10:41.610Z,13.40
2023-03-17T08:13:12.449Z,15.38
2023-03-17T08:15:42.784Z,10.18
2023-03-17T08:18:13.477Z,7.88
2023-03-17T08:20:43.596Z,11.05
2023-03-17T08:23:14.374Z,11.80
2023-03-17T08:25:44.741Z,10.98
2023-03-17T08:28:15.685Z,11.93
2023-03-17T08:30:44.903Z,14.15
2023-03-17T08:33:15.487Z,8.45
2023-03-17T08:35:43.844Z,11.27
2023-03-17T08:38:11.703Z,10.25
2023-03-17T08:40:41.159Z,13.80
2023-03-17T08:43:08.437Z,10.30
2023-03-17T08:45:39.233Z,10.38
2023-03-17T08:48:09.730Z,10.18
2023-03-17T08:50:39.748Z,9.85
2023-03-17T08:53:09.804Z,11.95
2023-03-17T08:55:39.813Z,10.30
2023-03-17T08:58:10.036Z,10.23
2023-03-17T09:00:40.921Z,11.63
2023-03-17T09:03:10.967Z,11.65
2023-03-17T09:05:42.796Z,7.75
2023-03-17T09:08:13.117Z,11.43
2023-03-17T09:10:44.502Z,10.30
2023-03-17T09:13:15.259Z,11.13
2023-03-17T09:15:46.173Z,9.85
2023-03-17T09:18:16.433Z,9.57
2023-03-17T09:20:47.004Z,11.80
2023-03-17T09:23:17.411Z,9.73
2023-03-17T09:25:47.931Z,11.40
2023-03-17T09:28:18.981Z,8.32
2023-03-17T09:30:49.842Z,10.02
2023-03-17T09:33:20.185Z,6.93
2023-03-17T09:35:53.125Z,8.18
2023-03-17T09:38:28.067Z,16.13
2023-03-17T09:41:18.678Z,11.18
2023-03-17T09:44:24.668Z,7.85
2023-03-17T09:47:53.719Z,8.65
2023-03-17T09:51:05.030Z,7.25
2023-03-17T09:54:18.904Z,8.95
2023-03-17T09:57:16.517Z,10.80
2023-03-17T10:00:07.500Z,7.25
2023-03-17T10:02:38.260Z,8.35
2023-03-17T10:05:30.513Z,6.18
2023-03-17T10:08:38.037Z,7.75
2023-03-17T10:11:41.320Z,9.20
2023-03-17T10:15:04.418Z,14.32
2023-03-17T10:17:42.839Z,6.25
2023-03-17T10:20:26.083Z,7.72
2023-03-17T10:23:06.928Z,6.43
2023-03-17T10:25:38.389Z,8.02
2023-03-17T10:28:25.099Z,6.80
2023-03-17T10:31:06.802Z,9.02
2023-03-17T10:33:37.139Z,7.72
2023-03-17T10:36:11.232Z,11.15
2023-03-17T10:38:41.563Z,7.65
2023-03-17T10:41:16.883Z,10.55
2023-03-17T10:43:53.707Z,7.57
2023-03-17T10:46:27.832Z,7.13
2023-03-17T10:49:10.944Z,7.43
2023-03-17T10:51:40.669Z,7.95
2023-03-17T10:54:19.054Z,9.48
2023-03-17T10:57:07.582Z,8.13
2023-03-17T10:59:49.235Z,5.35
2023-03-17T11:02:30.674Z,8.88
2023-03-17T11:05:22.086Z,6.22
2023-03-17T11:07:56.732Z,7.72
2023-03-17T11:10:29.320Z,7.28
2023-03-17T11:13:02.343Z,5.97
2023-03-17T11:16:08.284Z,8.30
2023-03-17T11:18:40.862Z,5.85
2023-03-17T11:21:20.913Z,6.72
2023-03-17T11:24:31.433Z,8.30
2023-03-17T11:28:16.273Z,8.45
2023-03-17T11:31:18.609Z,7.40
2023-03-17T11:34:08.884Z,6.38
2023-03-17T11:37:07.090Z,8.88
2023-03-17T11:40:24.374Z,8.05
2023-03-17T11:43:21.977Z,7.82
2023-03-17T11:46:04.887Z,7.30
2023-03-17T11:48:53.466Z,8.77
2023-03-17T11:51:52.841Z,8.25
2023-03-17T11:55:01.953Z,6.80
2023-03-17T11:57:52.224Z,7.55
2023-03-17T12:00:36.365Z,5.97
2023-03-17T12:03:42.618Z,5.72
2023-03-17T12:06:33.874Z,6.90
2023-03-17T12:09:18.063Z,7.45
2023-03-17T12:11:52.051Z,5.00
2023-03-17T12:14:38.483Z,6.03
2023-03-17T12:17:41.998Z,5.50
2023-03-17T12:20:49.840Z,4.85
2023-03-17T12:24:08.861Z,6.00
2023-03-17T12:27:05.110Z,5.35
2023-03-17T12:29:56.866Z,5.43
2023-03-17T12:32:58.574Z,4.10
2023-03-17T12:35:36.984Z,7.28
2023-03-17T12:38:16.292Z,6.70
2023-03-17T12:41:30.410Z,9.27
2023-03-17T12:45:10.368Z,4.90
2023-03-17T12:48:09.474Z,3.22
2023-03-17T12:51:14.661Z,8.35
2023-03-17T12:53:50.779Z,3.72
2023-03-17T12:56:31.965Z,10.82
2023-03-17T12:59:16.972Z,6.38
2023-03-17T13:02:32.244Z,7.85
2023-03-17T13:05:15.511Z,7.88
2023-03-17T13:07:59.849Z,4.07
2023-03-17T13:10:48.081Z,5.00
2023-03-17T13:13:45.734Z,3.70
2023-03-17T13:16:32.383Z,7.55
2023-03-17T13:19:24.460Z,7.25
2023-03-17T13:22:21.177Z,4.78
2023-03-17T13:24:53.774Z,5.75
2023-03-17T13:27:31.185Z,4.82
2023-03-17T13:30:25.903Z,4.72
2023-03-17T13:33:09.907Z,7.47
2023-03-17T13:35:57.100Z,8.82
2023-03-17T13:38:35.518Z,4.38
2023-03-17T13:41:51.403Z,5.03
2023-03-17T13:44:38.654Z,6.80
2023-03-17T13:47:35.689Z,5.80
2023-03-17T13:50:29.949Z,4.53
2023-03-17T13:53:11.816Z,6.05
2023-03-17T13:56:23.342Z,5.07
2023-03-17T13:58:59.727Z,4.28
2023-03-17T14:01:44.029Z,5.68
2023-03-17T14:04:35.569Z,5.40
2023-03-17T14:07:18.671Z,3.60
2023-03-17T14:09:59.099Z,4.35
2023-03-17T14:13:12.728Z,3.83
2023-03-17T14:16:12.800Z,5.63
2023-03-17T14:18:51.997Z,7.45
2023-03-17T14:21:33.753Z,4.65
2023-03-17T14:24:22.404Z,6.95
2023-03-17T14:26:53.564Z,4.85
2023-03-17T14:29:33.752Z,5.15
2023-03-17T14:32:14.418Z,4.32
2023-03-17T14:34:58.290Z,4.00
2023-03-17T14:37:29.303Z,4.18
2023-03-17T14:39:59.371Z,4.50
2023-03-17T14:42:32.502Z,3.55
2023-03-17T14:45:19.109Z,5.47
2023-03-17T14:47:51.783Z,6.38
2023-03-17T14:50:33.495Z,5.40
2023-03-17T14:53:02.074Z,7.47
2023-03-17T14:55:43.616Z,4.70
2023-03-17T14:58:31.466Z,5.93
2023-03-17T15:01:17.321Z,8.50
2023-03-17T15:04:16.990Z,4.10
2023-03-17T15:09:45.749Z,4.70
2023-03-17T15:12:24.876Z,4.88
2023-03-17T15:15:31.353Z,4.60
2023-03-17T15:18:12.982Z,5.65
2023-03-17T15:20:45.870Z,5.13
2023-03-17T15:23:22.266Z,3.65
2023-03-17T15:25:56.987Z,5.50
2023-03-17T15:28:31.725Z,6.25
2023-03-17T15:31:13.815Z,9.25
2023-03-17T15:33:44.707Z,6.22
2023-03-17T15:36:33.352Z,8.05
2023-03-17T15:39:03.879Z,5.55
2023-03-17T15:41:33.995Z,5.00
2023-03-17T15:44:05.326Z,6.78
2023-03-17T15:46:35.822Z,6.03
2023-03-17T15:49:11.093Z,6.00
2023-03-17T15:51:41.283Z,5.40
2023-03-17T15:54:15.618Z,5.10
2023-03-17T15:56:45.854Z,6.00
2023-03-17T15:59:16.201Z,7.80
2023-03-17T16:01:46.902Z,5.55
2023-03-17T16:04:18.073Z,9.88
2023-03-17T16:06:49.270Z,6.30
2023-03-17T16:09:19.365Z,5.90
2023-03-17T16:11:52.178Z,6.80
2023-03-17T16:14:22.267Z,4.13
2023-03-17T16:16:52.924Z,7.57
2023-03-17T16:19:24.936Z,6.95
2023-03-17T16:21:55.355Z,6.80
2023-03-17T16:24:28.237Z,5.95
2023-03-17T16:26:57.241Z,5.47
2023-03-17T16:29:26.976Z,7.60
2023-03-17T16:31:56.786Z,5.55
2023-03-17T16:34:26.868Z,4.82
2023-03-17T16:36:57.037Z,4.57
2023-03-17T16:39:27.351Z,4.70
2023-03-17T16:41:55.730Z,5.25
2023-03-17T16:44:24.000Z,5.10
2023-03-17T16:46:53.328Z,6.63
2023-03-17T16:49:23.106Z,6.03
2023-03-17T16:51:53.200Z,6.15
2023-03-17T16:54:21.669Z,5.72
2023-03-17T16:56:50.074Z,6.15
2023-03-17T16:59:24.475Z,5.15
2023-03-17T17:01:54.952Z,5.68
2023-03-17T17:04:25.317Z,5.68
2023-03-17T17:06:56.734Z,5.88
2023-03-17T17:09:26.718Z,6.78
2023-03-17T17:11:58.476Z,6.25
2023-03-17T17:14:28.584Z,9.60
2023-03-17T17:16:58.789Z,7.15
2023-03-17T17:19:28.903Z,11.20
2023-03-17T17:21:58.943Z,8.70
2023-03-17T17:24:29.536Z,5.28
2023-03-17T17:26:59.591Z,6.45
2023-03-17T17:29:32.236Z,7.97
2023-03-17T17:32:03.507Z,6.95
2023-03-17T17:34:33.528Z,5.95
2023-03-17T17:37:02.061Z,6.65
2023-03-17T17:39:30.645Z,7.53
2023-03-17T17:41:58.751Z,11.32
2023-03-17T17:44:27.269Z,7.57
2023-03-17T17:46:55.976Z,11.07
2023-03-17T17:49:24.501Z,8.55
2023-03-17T17:51:52.516Z,10.25
2023-03-17T17:54:22.346Z,9.73
2023-03-17T17:56:52.518Z,9.82
2023-03-17T17:59:19.993Z,9.60
2023-03-17T18:01:48.378Z,10.20
2023-03-17T18:04:16.848Z,10.98
2023-03-17T18:06:47.138Z,8.82
2023-03-17T18:09:18.274Z,7.20
2023-03-17T18:11:49.279Z,9.75
2023-03-17T18:14:19.642Z,11.57
2023-03-17T18:16:47.836Z,9.23
2023-03-17T18:19:17.725Z,8.73
2023-03-17T18:21:47.090Z,10.65
2023-03-17T18:24:17.529Z,11.48
2023-03-17T18:26:47.542Z,9.35
2023-03-17T18:29:17.553Z,11.95
2023-03-17T18:31:54.906Z,9.07
2023-03-17T18:34:43.540Z,8.80
2023-03-17T18:37:17.965Z,8.10
2023-03-17T18:39:58.611Z,10.68
2023-03-17T18:42:38.382Z,10.52
2023-03-17T18:45:11.658Z,8.27
2023-03-17T18:47:42.232Z,9.77
2023-03-17T18:50:16.534Z,13.18
2023-03-17T18:52:46.684Z,20.27
2023-03-17T18:55:17.742Z,14.13
2023-03-17T18:57:48.025Z,11.23
2023-03-17T19:00:18.697Z,12.43
2023-03-17T19:02:48.822Z,11.23
2023-03-17T19:05:19.697Z,15.73
2023-03-17T19:07:49.845Z,9.93
2023-03-17T19:10:20.133Z,13.45
2023-03-17T19:12:52.119Z,12.80
2023-03-17T19:15:22.064Z,13.48
2023-03-17T19:17:50.459Z,12.70
2023-03-17T19:20:20.087Z,10.60
2023-03-17T19:22:53.283Z,10.02
2023-03-17T19:25:24.006Z,8.48
2023-03-17T19:27:55.281Z,10.02
2023-03-17T19:30:25.704Z,10.57
2023-03-17T19:32:55.821Z,12.40
2023-03-17T19:35:25.992Z,14.35
2023-03-17T19:37:56.537Z,12.68
2023-03-17T19:40:26.611Z,9.48
2023-03-17T19:42:57.179Z,10.27
2023-03-17T19:45:27.495Z,13.57
2023-03-17T19:47:59.341Z,12.18
2023-03-17T19:50:31.909Z,13.40
2023-03-17T19:53:02.138Z,12.68
2023-03-17T19:55:30.870Z,14.98
2023-03-17T19:57:59.393Z,11.98
2023-03-17T20:00:27.563Z,14.07
2023-03-17T20:02:55.914Z,13.43
2023-03-17T20:05:24.282Z,12.20
2023-03-17T20:07:52.759Z,13.90
2023-03-17T20:10:21.361Z,13.27
2023-03-17T20:12:50.025Z,30.92
2023-03-17T20:15:19.537Z,16.67
2023-03-17T20:17:47.011Z,13.23
2023-03-17T20:20:15.442Z,14.50
2023-03-17T20:22:44.037Z,15.25
2023-03-17T20:25:12.411Z,15.57
2023-03-17T20:27:40.661Z,19.08
2023-03-17T20:30:12.318Z,13.13
2023-03-17T20:32:42.457Z,17.65
2023-03-17T20:35:12.609Z,16.40
2023-03-17T20:37:42.686Z,17.38
2023-03-17T20:40:12.720Z,15.45
2023-03-17T20:42:42.934Z,16.20
2023-03-17T20:45:10.905Z,14.63
2023-03-17T20:47:40.145Z,15.32
2023-03-17T20:50:10.055Z,14.32
2023-03-17T20:52:41.980Z,16.27
2023-03-17T20:55:14.011Z,16.90
2023-03-17T20:57:49.366Z,13.38
2023-03-17T21:00:22.126Z,13.13
2023-03-17T21:02:52.200Z,13.45
2023-03-17T21:05:27.789Z,16.10
2023-03-17T21:07:57.808Z,14.63
2023-03-17T21:10:28.069Z,15.45
2023-03-17T21:12:58.110Z,19.17
2023-03-17T21:15:28.867Z,13.25
2023-03-17T21:17:58.888Z,13.68
2023-03-17T21:20:29.338Z,18.02
2023-03-17T21:23:00.429Z,16.38
2023-03-17T21:25:31.321Z,14.85
2023-03-17T21:28:01.568Z,14.27
2023-03-17T21:30:34.235Z,15.18
2023-03-17T21:33:04.841Z,18.27
2023-03-17T21:35:35.634Z,17.33
2023-03-17T21:38:05.733Z,15.25
2023-03-17T21:40:36.416Z,17.13
2023-03-17T21:43:06.420Z,18.08
2023-03-17T21:45:37.781Z,17.40
2023-03-17T21:48:07.985Z,16.40
2023-03-17T21:50:38.555Z,15.13
2023-03-17T21:53:10.153Z,16.88
2023-03-17T21:55:41.465Z,14.40
2023-03-17T21:58:11.732Z,15.13
2023-03-17T22:00:45.696Z,21.60
2023-03-17T22:03:16.261Z,15.85
2023-03-17T22:05:47.286Z,15.70
2023-03-17T22:08:17.412Z,13.68
2023-03-17T22:10:45.871Z,16.63
2023-03-17T22:13:14.133Z,15.85
2023-03-17T22:15:42.886Z,14.57
2023-03-17T22:18:11.467Z,20.63
2023-03-17T22:20:39.748Z,15.88
2023-03-17T22:23:08.284Z,16.98
2023-03-17T22:25:37.412Z,13.95
2023-03-17T22:28:04.803Z,18.55
2023-03-17T22:30:33.392Z,15.38
2023-03-17T22:33:01.986Z,14.57
2023-03-17T22:35:30.011Z,14.40
2023-03-17T22:37:59.020Z,17.33
2023-03-17T22:40:27.134Z,14.88
2023-03-17T22:42:58.202Z,16.42
2023-03-17T22:45:26.934Z,16.15
2023-03-17T22:47:56.082Z,17.70
2023-03-17T22:50:26.150Z,13.43
2023-03-17T22:52:56.284Z,15.57
2023-03-17T22:55:26.331Z,17.40
2023-03-17T22:57:56.299Z,17.63
2023-03-17T23:00:26.430Z,16.08
2023-03-17T23:02:56.561Z,13.55
2023-03-17T23:05:26.781Z,16.17
2023-03-17T23:07:57.580Z,15.95
2023-03-17T23:10:28.600Z,18.95
2023-03-17T23:12:59.001Z,16.35
2023-03-17T23:15:29.167Z,17.23
2023-03-17T23:17:59.409Z,15.90
2023-03-17T23:20:30.797Z,15.38
2023-03-17T23:23:01.482Z,16.05
2023-03-17T23:25:31.742Z,14.82
2023-03-17T23:28:02.335Z,14.40
2023-03-17T23:30:33.004Z,13.25
2023-03-17T23:33:05.185Z,18.27
2023-03-17T23:35:35.825Z,12.85
2023-03-17T23:38:04.490Z,16.70
2023-03-17T23:40:34.951Z,11.60
2023-03-17T23:43:05.545Z,12.20
2023-03-17T23:45:35.700Z,11.90
2023-03-17T23:48:05.744Z,11.55
2023-03-17T23:50:34.663Z,17.77
2023-03-17T23:53:02.954Z,13.05
2023-03-17T23:55:31.572Z,14.60
2023-03-17T23:58:01.413Z,14.00
